Sisseton, SD

12:42 AM CST on December 26, 2014 (GMT -0600)
Ortonville Municipal-Martinson | Change Station
CLOSE
Current Station
Airport
Location: Ortonville,
Elevation: 1099 ft
Nearby Weather Stations

Elev 1099 ft 45.31 °N, 96.42 °W | Updated 8 minutes ago

Overcast
Overcast
27 °F
Feels Like 15 °F
N
14
Wind Variable Wind from North

Today
High -- | Low -- °F
--% Chance of Precip.
Yesterday
High -- | Low -- °F
Precip. -- in
8:07 AM 4:49 PM
Waxing Crescent, 23% visible
Pressure 29.92 in
Visibility 2.5 miles
Clouds Mostly Cloudy 700 ft
Mostly Cloudy 1100 ft
Windchill 15 °F
Dew Point 23 °F
Humidity 86%
Rainfall 0.02 in
Snow Depth Not available.
UV 0 out of 12
Pollen .10 out of 12
Air Quality Not available.
Flu Activity Not available.
METAR KVVV 260634Z AUTO 35012KT 2 1/2SM -SN BKN007 BKN011 M03/M05 A2992 RMK AO2 P0001

More Conditions Fewer Conditions

Pressure 29.92 in
Visibility 2.5 miles
Clouds Mostly Cloudy 700 ft
Mostly Cloudy 1100 ft
Windchill 15 °F
Dew Point 23 °F
Humidity 86%
Rainfall 0.02 in
Snow Depth Not available.
UV 0 out of 12
Pollen .10 out of 12
Air Quality Not available.
Flu Activity Not available.
METAR KVVV 260634Z AUTO 35012KT 2 1/2SM -SN BKN007 BKN011 M03/M05 A2992 RMK AO2 P0001

More Conditions Fewer Conditions

10-Day Weather Forecast

Almanac

Astronomy

Dec. 26, 2014 Rise Set
Actual Time
Civil Twilight
Nautical Twilight
Astronomical Twilight
Moon
Length of Visible Light
Length of Day
Tomorrow will be .
, % of the Moon is Illuminated

Today's Extremes

State Highs State Lows

Community

WunderPhotos

Upload Photos

1,780,568 photos uploaded!

WunderBlogs® & News

Nearby

Air Quality

  Air Quality AQ Index Pollutant
Not available.

Snow Depth

Station Depth Elevation

Earthquake Activity

City Distance Mag. Time & Date
Minimum magnitude displayed is 2.5.

Coastal Water Temperatures

Place Temperature

Nearby Weather Stations